Time,TemperatureF,DewpointF,PressureIn,WindDirection,WindDirectionDegrees,WindSpeedMPH,WindSpeedGustMPH,Humidity,HourlyPrecipIn,Conditions,Clouds,dailyrainin,SoftwareType,DateUTC
2013-01-28 00:01:00,41.0,39.0,29.95,NNW,338,0.0,0.0,93,0.00,,,0.30,,2013-01-28 08:01:00,
2013-01-28 00:11:00,41.0,39.0,29.95,NNW,338,0.0,0.0,93,0.00,,,0.30,,2013-01-28 08:11:00,
2013-01-28 00:21:00,41.0,39.0,29.94,NNW,338,1.0,3.0,93,0.00,,,0.30,,2013-01-28 08:21:00,
2013-01-28 00:31:00,41.0,39.0,29.96,NNW,338,0.0,0.0,93,0.00,,,0.30,,2013-01-28 08:31:00,
2013-01-28 00:41:00,41.0,39.0,29.96,NNW,338,0.0,0.0,93,0.00,,,0.30,,2013-01-28 08:41:00,
2013-01-28 00:52:00,41.0,39.0,29.96,North,0,1.0,2.0,93,0.00,,,0.30,,2013-01-28 08:52:00,
2013-01-28 01:01:00,40.0,38.0,29.95,North,0,1.0,2.0,93,0.00,,,0.30,,2013-01-28 09:01:00,
2013-01-28 01:11:00,40.0,38.0,29.95,North,0,1.0,2.0,93,0.00,,,0.30,,2013-01-28 09:11:00,
2013-01-28 01:21:00,40.0,38.0,29.94,NE,45,0.0,0.0,93,0.00,,,0.30,,2013-01-28 09:21:00,
2013-01-28 01:31:00,40.0,38.0,29.95,NNW,338,0.0,0.0,93,0.00,,,0.30,,2013-01-28 09:31:00,
2013-01-28 01:41:00,40.0,38.0,29.95,NNW,338,0.0,0.0,93,0.00,,,0.30,,2013-01-28 09:41:00,
2013-01-28 01:52:00,40.0,38.0,29.96,NNW,338,0.0,0.0,93,0.00,,,0.30,,2013-01-28 09:52:00,
2013-01-28 02:01:00,40.0,38.0,29.96,NNW,338,0.0,0.0,93,0.00,,,0.30,,2013-01-28 10:01:00,
2013-01-28 02:11:00,40.0,38.0,29.96,NNW,338,0.0,0.0,93,0.00,,,0.30,,2013-01-28 10:11:00,
2013-01-28 02:21:00,40.0,38.0,29.96,NNW,338,0.0,0.0,93,0.00,,,0.28,,2013-01-28 10:21:00,
2013-01-28 02:31:00,40.0,38.0,29.97,NNW,338,0.0,1.0,93,0.00,,,0.28,,2013-01-28 10:31:00,
2013-01-28 02:41:00,40.0,38.0,29.97,NNW,338,0.0,1.0,93,0.00,,,0.28,,2013-01-28 10:41:00,
2013-01-28 02:52:00,40.0,38.0,29.97,NNW,338,0.0,0.0,93,0.00,,,0.28,,2013-01-28 10:52:00,
2013-01-28 03:01:00,40.0,38.0,29.97,NNW,338,0.0,0.0,93,0.02,,,0.30,,2013-01-28 11:01:00,
2013-01-28 03:11:00,40.0,38.0,29.97,NNW,338,0.0,0.0,93,0.02,,,0.30,,2013-01-28 11:11:00,
2013-01-28 03:21:00,40.0,38.0,29.97,NNW,338,0.0,0.0,93,0.02,,,0.30,,2013-01-28 11:21:00,
2013-01-28 03:31:00,40.0,38.0,29.97,NNW,338,0.0,0.0,93,0.02,,,0.30,,2013-01-28 11:31:00,
2013-01-28 03:41:00,40.0,38.0,29.97,NNW,338,0.0,0.0,93,0.02,,,0.30,,2013-01-28 11:41:00,
2013-01-28 03:52:00,40.0,38.0,29.97,NNW,338,0.0,0.0,93,0.02,,,0.30,,2013-01-28 11:52:00,
2013-01-28 04:02:00,40.0,38.0,29.97,NNW,338,0.0,0.0,93,0.02,,,0.30,,2013-01-28 12:02:00,
2013-01-28 04:11:00,40.0,38.0,29.97,NNW,338,0.0,0.0,93,0.02,,,0.30,,2013-01-28 12:11:00,
2013-01-28 04:22:00,40.0,38.0,29.98,NNW,338,0.0,0.0,93,0.00,,,0.30,,2013-01-28 12:22:00,
2013-01-28 04:33:00,40.0,38.0,29.98,NNW,338,0.0,0.0,93,0.00,,,0.30,,2013-01-28 12:33:00,
2013-01-28 04:42:00,40.0,38.0,29.98,NNW,338,0.0,0.0,93,0.00,,,0.30,,2013-01-28 12:42:00,
2013-01-28 04:52:00,40.0,38.0,29.99,NNW,338,0.0,0.0,93,0.00,,,0.30,,2013-01-28 12:52:00,
2013-01-28 05:02:00,41.0,39.0,29.99,NNW,338,0.0,0.0,93,0.00,,,0.30,,2013-01-28 13:02:00,
2013-01-28 05:11:00,41.0,39.0,29.99,NNW,338,0.0,0.0,93,0.00,,,0.30,,2013-01-28 13:11:00,
2013-01-28 05:22:00,41.0,39.0,29.99,NNW,338,2.0,2.0,93,0.00,,,0.30,,2013-01-28 13:22:00,
2013-01-28 05:32:00,41.0,39.0,29.98,NNW,338,0.0,0.0,93,0.00,,,0.30,,2013-01-28 13:32:00,
2013-01-28 05:41:00,41.0,39.0,29.98,NNW,338,0.0,0.0,93,0.00,,,0.30,,2013-01-28 13:41:00,
2013-01-28 05:52:00,41.0,39.0,29.98,NNW,338,0.0,0.0,93,0.00,,,0.30,,2013-01-28 13:52:00,
2013-01-28 06:02:00,41.0,39.0,29.98,NNW,338,0.0,0.0,93,0.00,,,0.30,,2013-01-28 14:02:00,
2013-01-28 06:11:00,41.0,39.0,29.98,NNW,338,0.0,0.0,93,0.00,,,0.30,,2013-01-28 14:11:00,
2013-01-28 06:22:00,41.0,39.0,29.98,NNW,338,0.0,0.0,93,0.00,,,0.30,,2013-01-28 14:22:00,
2013-01-28 06:32:00,41.0,39.0,29.97,NNW,338,0.0,0.0,93,0.00,,,0.30,,2013-01-28 14:32:00,
2013-01-28 06:42:00,41.0,39.0,29.97,NNW,338,0.0,0.0,93,0.00,,,0.30,,2013-01-28 14:42:00,
2013-01-28 06:52:00,41.0,39.0,29.98,NNW,338,0.0,0.0,93,0.02,,,0.32,,2013-01-28 14:52:00,
2013-01-28 07:02:00,41.0,39.0,29.98,NNW,338,0.0,0.0,93,0.04,,,0.34,,2013-01-28 15:02:00,
2013-01-28 07:11:00,41.0,39.0,29.98,NNW,338,0.0,0.0,93,0.04,,,0.34,,2013-01-28 15:11:00,
2013-01-28 07:22:00,41.0,39.0,29.99,NNW,338,0.0,0.0,92,0.04,,,0.34,,2013-01-28 15:22:00,
2013-01-28 07:32:00,41.0,39.0,29.99,NNW,338,1.0,1.0,92,0.04,,,0.34,,2013-01-28 15:32:00,
2013-01-28 07:42:00,41.0,39.0,29.99,NNW,338,1.0,1.0,92,0.04,,,0.34,,2013-01-28 15:42:00,
2013-01-28 07:53:00,40.0,38.0,29.99,NNW,338,0.0,0.0,92,0.04,,,0.34,,2013-01-28 15:53:00,
2013-01-28 08:02:00,40.0,38.0,29.99,NNW,338,0.0,0.0,92,0.04,,,0.34,,2013-01-28 16:02:00,
2013-01-28 08:11:00,40.0,38.0,29.99,NNW,338,0.0,0.0,92,0.04,,,0.34,,2013-01-28 16:11:00,
2013-01-28 08:21:00,40.0,38.0,30.00,ENE,68,0.0,0.0,92,0.00,,,0.34,,2013-01-28 16:21:00,
2013-01-28 08:33:00,40.0,38.0,30.00,NNE,22,0.0,0.0,92,0.00,,,0.34,,2013-01-28 16:33:00,
2013-01-28 08:43:00,40.0,38.0,30.00,NNE,22,0.0,0.0,92,0.00,,,0.34,,2013-01-28 16:43:00,
2013-01-28 08:52:00,40.0,38.0,29.99,North,0,2.0,2.0,93,0.00,,,0.34,,2013-01-28 16:52:00,
2013-01-28 09:01:00,41.0,39.0,29.99,NNW,338,0.0,0.0,93,0.00,,,0.34,,2013-01-28 17:01:00,
2013-01-28 09:11:00,41.0,39.0,29.99,NNW,338,0.0,0.0,93,0.00,,,0.34,,2013-01-28 17:11:00,
2013-01-28 09:22:00,41.0,39.0,29.99,NNW,338,0.0,0.0,93,0.00,,,0.34,,2013-01-28 17:22:00,
2013-01-28 09:31:00,41.0,39.0,29.99,NNW,338,0.0,0.0,93,0.00,,,0.34,,2013-01-28 17:31:00,
2013-01-28 09:41:00,41.0,39.0,29.99,NNW,338,0.0,0.0,93,0.00,,,0.34,,2013-01-28 17:41:00,
2013-01-28 09:52:00,41.0,39.0,29.99,NNW,338,0.0,0.0,93,0.00,,,0.34,,2013-01-28 17:52:00,
2013-01-28 10:01:00,41.0,39.0,29.99,NNW,338,0.0,0.0,93,0.00,,,0.34,,2013-01-28 18:01:00,
2013-01-28 10:12:00,41.0,39.0,29.99,NNW,338,0.0,0.0,93,0.00,,,0.34,,2013-01-28 18:12:00,
2013-01-28 10:22:00,41.0,39.0,30.00,NNW,338,0.0,0.0,93,0.02,,,0.34,,2013-01-28 18:22:00,
2013-01-28 10:33:00,41.0,39.0,30.00,NNW,338,0.0,0.0,93,0.02,,,0.34,,2013-01-28 18:33:00,
2013-01-28 10:42:00,41.0,39.0,30.00,NNW,338,0.0,0.0,93,0.02,,,0.34,,2013-01-28 18:42:00,
2013-01-28 10:52:00,41.0,39.0,30.00,NNW,343,0.0,0.0,93,0.02,,,0.34,,2013-01-28 18:52:00,
2013-01-28 11:01:00,41.0,39.0,30.01,NNW,338,0.0,0.0,93,0.04,,,0.36,,2013-01-28 19:01:00,
2013-01-28 11:11:00,41.0,39.0,30.01,NNW,338,0.0,0.0,93,0.04,,,0.36,,2013-01-28 19:11:00,
2013-01-28 11:21:00,41.0,39.0,30.01,North,0,0.0,2.0,93,0.04,,,0.38,,2013-01-28 19:21:00,
2013-01-28 11:31:00,41.0,39.0,30.01,North,0,0.0,2.0,93,0.04,,,0.38,,2013-01-28 19:31:00,
2013-01-28 11:42:00,41.0,39.0,30.01,North,0,0.0,2.0,93,0.04,,,0.38,,2013-01-28 19:42:00,
2013-01-28 11:52:00,41.0,39.0,30.01,NNW,338,1.0,2.0,92,0.08,,,0.42,,2013-01-28 19:52:00,
2013-01-28 12:01:00,41.0,39.0,30.01,NNW,338,1.0,2.0,92,0.08,,,0.42,,2013-01-28 20:01:00,
2013-01-28 12:11:00,41.0,39.0,30.01,NNW,338,1.0,2.0,92,0.08,,,0.42,,2013-01-28 20:11:00,
2013-01-28 12:21:00,40.0,38.0,30.01,NNW,338,0.0,0.0,92,0.10,,,0.46,,2013-01-28 20:21:00,
2013-01-28 12:32:00,40.0,38.0,30.00,NNW,338,0.0,0.0,92,0.10,,,0.48,,2013-01-28 20:32:00,
2013-01-28 12:43:00,40.0,38.0,30.00,NNW,338,0.0,0.0,92,0.10,,,0.48,,2013-01-28 20:43:00,
2013-01-28 12:52:00,41.0,39.0,30.00,WNW,292,0.0,0.0,92,0.08,,,0.50,,2013-01-28 20:52:00,
2013-01-28 13:02:00,41.0,39.0,30.00,WNW,292,0.0,0.0,92,0.10,,,0.52,,2013-01-28 21:02:00,
2013-01-28 13:11:00,41.0,39.0,30.00,WNW,292,0.0,0.0,92,0.10,,,0.52,,2013-01-28 21:11:00,
2013-01-28 13:21:00,41.0,39.0,29.99,NNW,338,0.0,0.0,92,0.08,,,0.52,,2013-01-28 21:21:00,
2013-01-28 13:32:00,41.0,39.0,30.00,NNW,338,0.0,0.0,92,0.06,,,0.52,,2013-01-28 21:32:00,
2013-01-28 13:42:00,41.0,39.0,30.00,NNW,338,0.0,0.0,92,0.06,,,0.52,,2013-01-28 21:42:00,
2013-01-28 13:52:00,41.0,39.0,29.99,NNW,338,0.0,0.0,92,0.06,,,0.54,,2013-01-28 21:52:00,
2013-01-28 14:01:00,41.0,39.0,29.99,NNW,338,0.0,0.0,92,0.06,,,0.54,,2013-01-28 22:01:00,
2013-01-28 14:11:00,41.0,39.0,29.99,NNW,338,0.0,0.0,92,0.06,,,0.54,,2013-01-28 22:11:00,
2013-01-28 14:22:00,41.0,39.0,29.99,NNW,338,0.0,0.0,92,0.06,,,0.54,,2013-01-28 22:22:00,
2013-01-28 15:22:00,41.0,39.0,29.98,NNW,338,0.0,0.0,92,0.04,,,0.60,,2013-01-28 23:22:00,
2013-01-28 15:32:00,41.0,39.0,29.98,NNW,338,0.0,0.0,92,0.04,,,0.60,,2013-01-28 23:32:00,
2013-01-28 15:42:00,41.0,39.0,29.98,NNW,338,0.0,0.0,92,0.04,,,0.60,,2013-01-28 23:42:00,
2013-01-28 15:52:00,41.0,39.0,29.98,NNW,338,0.0,0.0,92,0.04,,,0.62,,2013-01-28 23:52:00,
2013-01-28 16:01:00,41.0,39.0,29.97,NNW,338,0.0,0.0,92,0.04,,,0.62,,2013-01-29 00:01:00,
2013-01-28 16:11:00,41.0,39.0,29.97,NNW,338,0.0,0.0,92,0.04,,,0.62,,2013-01-29 00:11:00,
2013-01-28 16:21:00,41.0,39.0,29.96,NNW,338,0.0,0.0,92,0.06,,,0.64,,2013-01-29 00:21:00,
2013-01-28 16:32:00,41.0,39.0,29.96,NNW,338,0.0,0.0,92,0.06,,,0.64,,2013-01-29 00:32:00,
2013-01-28 16:41:00,41.0,39.0,29.96,NNW,338,0.0,0.0,92,0.06,,,0.64,,2013-01-29 00:41:00,
2013-01-28 16:52:00,41.0,39.0,29.96,NNW,338,0.0,0.0,93,0.06,,,0.66,,2013-01-29 00:52:00,
2013-01-28 17:01:00,41.0,39.0,29.96,NNW,338,0.0,0.0,92,0.08,,,0.68,,2013-01-29 01:01:00,
2013-01-28 17:11:00,41.0,39.0,29.96,NNW,338,0.0,0.0,92,0.08,,,0.68,,2013-01-29 01:11:00,
2013-01-28 17:22:00,41.0,39.0,29.96,NNW,338,0.0,0.0,92,0.08,,,0.68,,2013-01-29 01:22:00,
2013-01-28 17:31:00,41.0,39.0,29.96,NNW,338,1.0,1.0,92,0.06,,,0.69,,2013-01-29 01:31:00,
2013-01-28 17:41:00,41.0,39.0,29.96,NNW,338,1.0,1.0,92,0.06,,,0.69,,2013-01-29 01:41:00,
2013-01-28 17:52:00,41.0,39.0,29.96,NNW,338,0.0,0.0,93,0.06,,,0.71,,2013-01-29 01:52:00,
2013-01-28 18:01:00,41.0,39.0,29.96,NNW,338,0.0,0.0,93,0.04,,,0.69,,2013-01-29 02:01:00,
2013-01-28 18:11:00,41.0,39.0,29.96,NNW,338,0.0,0.0,93,0.04,,,0.69,,2013-01-29 02:11:00,
2013-01-28 18:21:00,41.0,39.0,29.97,NNW,338,0.0,0.0,93,0.04,,,0.69,,2013-01-29 02:21:00,
2013-01-28 18:32:00,41.0,39.0,29.97,NNW,338,0.0,0.0,93,0.06,,,0.71,,2013-01-29 02:32:00,
2013-01-28 18:41:00,41.0,39.0,29.97,NNW,338,0.0,0.0,93,0.06,,,0.71,,2013-01-29 02:41:00,
2013-01-28 18:52:00,41.0,39.0,29.96,NNW,338,0.0,0.0,93,0.04,,,0.71,,2013-01-29 02:52:00,
2013-01-28 19:02:00,41.0,39.0,29.97,NNW,338,0.0,0.0,93,0.06,,,0.73,,2013-01-29 03:02:00,
2013-01-28 19:11:00,41.0,39.0,29.97,NNW,338,0.0,0.0,93,0.06,,,0.73,,2013-01-29 03:11:00,
2013-01-28 19:21:00,41.0,39.0,29.97,NNW,338,0.0,0.0,93,0.04,,,0.73,,2013-01-29 03:21:00,
2013-01-28 19:31:00,42.0,40.0,29.97,NNW,338,0.0,0.0,93,0.02,,,0.73,,2013-01-29 03:31:00,
2013-01-28 19:41:00,42.0,40.0,29.97,NNW,338,0.0,0.0,93,0.02,,,0.73,,2013-01-29 03:41:00,
2013-01-28 19:52:00,42.0,40.0,29.97,NNW,338,0.0,0.0,93,0.02,,,0.73,,2013-01-29 03:52:00,
2013-01-28 20:01:00,41.0,39.0,29.98,NNW,338,0.0,0.0,93,0.00,,,0.73,,2013-01-29 04:01:00,
2013-01-28 20:11:00,41.0,39.0,29.98,NNW,338,0.0,0.0,93,0.00,,,0.73,,2013-01-29 04:11:00,
2013-01-28 20:21:00,41.0,39.0,29.97,NNW,338,0.0,0.0,93,0.00,,,0.73,,2013-01-29 04:21:00,
2013-01-28 20:32:00,41.0,39.0,29.98,NNW,338,1.0,1.0,93,0.00,,,0.71,,2013-01-29 04:32:00,
2013-01-28 20:41:00,41.0,39.0,29.98,NNW,338,1.0,1.0,93,0.00,,,0.71,,2013-01-29 04:41:00,
2013-01-28 20:52:00,41.0,39.0,29.98,NNW,338,0.0,0.0,93,0.02,,,0.73,,2013-01-29 04:52:00,
2013-01-28 21:03:00,41.0,39.0,29.99,NNW,338,0.0,0.0,92,0.02,,,0.73,,2013-01-29 05:03:00,
2013-01-28 21:12:00,41.0,39.0,29.99,NNW,338,0.0,0.0,92,0.02,,,0.73,,2013-01-29 05:12:00,
2013-01-28 21:21:00,41.0,39.0,29.99,NNW,338,0.0,0.0,92,0.04,,,0.75,,2013-01-29 05:21:00,
2013-01-28 21:31:00,41.0,39.0,29.99,NNW,338,0.0,0.0,92,0.06,,,0.75,,2013-01-29 05:31:00,
2013-01-28 21:42:00,41.0,39.0,29.99,NNW,338,0.0,0.0,92,0.06,,,0.75,,2013-01-29 05:42:00,
2013-01-28 21:52:00,41.0,39.0,29.99,NNW,338,0.0,0.0,92,0.06,,,0.75,,2013-01-29 05:52:00,
2013-01-28 22:01:00,41.0,39.0,29.99,NNW,338,0.0,0.0,92,0.06,,,0.75,,2013-01-29 06:01:00,
2013-01-28 22:11:00,41.0,39.0,29.99,NNW,338,0.0,0.0,92,0.06,,,0.75,,2013-01-29 06:11:00,
2013-01-28 22:22:00,41.0,39.0,29.99,NNW,338,0.0,0.0,92,0.06,,,0.75,,2013-01-29 06:22:00,
2013-01-28 22:32:00,41.0,39.0,30.00,NNW,338,2.0,2.0,92,0.08,,,0.75,,2013-01-29 06:32:00,
2013-01-28 22:42:00,41.0,39.0,30.00,NNW,338,2.0,2.0,92,0.08,,,0.75,,2013-01-29 06:42:00,
2013-01-28 22:52:00,41.0,39.0,30.00,NNW,338,2.0,2.0,92,0.08,,,0.75,,2013-01-29 06:52:00,
2013-01-28 23:01:00,41.0,39.0,30.01,NNW,338,0.0,0.0,93,0.06,,,0.73,,2013-01-29 07:01:00,
2013-01-28 23:11:00,41.0,39.0,30.01,NNW,338,0.0,0.0,93,0.06,,,0.73,,2013-01-29 07:11:00,
2013-01-28 23:21:00,41.0,39.0,30.01,NNW,338,0.0,1.0,93,0.06,,,0.75,,2013-01-29 07:21:00,
2013-01-28 23:31:00,41.0,39.0,30.01,NNW,338,0.0,1.0,93,0.06,,,0.75,,2013-01-29 07:31:00,
2013-01-28 23:41:00,41.0,39.0,30.01,NNW,338,0.0,1.0,93,0.06,,,0.75,,2013-01-29 07:41:00,
2013-01-28 23:51:00,41.0,39.0,30.02,West,270,1.0,1.0,93,0.04,,,0.77,,2013-01-29 07:51:00,